createdAt,value
2023-05-10T00:00:24.787Z,34.67
2023-05-10T00:03:12.406Z,34.60
2023-05-10T00:05:43.046Z,34.82
2023-05-10T00:08:14.119Z,34.81
2023-05-10T00:10:44.692Z,34.67
2023-05-10T00:13:15.652Z,34.66
2023-05-10T00:15:46.208Z,34.74
2023-05-10T00:18:16.786Z,34.91
2023-05-10T00:20:47.558Z,35.00
2023-05-10T00:23:18.232Z,34.85
2023-05-10T00:25:48.776Z,35.00
2023-05-10T00:28:19.348Z,35.14
2023-05-10T00:30:49.956Z,35.11
2023-05-10T00:33:20.929Z,35.23
2023-05-10T00:35:51.938Z,35.14
2023-05-10T00:38:22.497Z,34.95
2023-05-10T00:40:53.106Z,35.04
2023-05-10T00:43:29.376Z,35.09
2023-05-10T00:45:59.960Z,35.12
2023-05-10T00:48:30.753Z,35.05
2023-05-10T00:51:02.970Z,35.21
2023-05-10T00:53:34.695Z,35.11
2023-05-10T00:56:06.562Z,35.10
2023-05-10T00:58:37.428Z,35.17
2023-05-10T01:01:08.399Z,35.27
2023-05-10T01:03:39.525Z,35.33
2023-05-10T01:06:11.018Z,35.36
2023-05-10T01:08:42.029Z,35.26
2023-05-10T01:11:12.612Z,35.42
2023-05-10T01:13:44.275Z,35.59
2023-05-10T01:16:15.369Z,35.50
2023-05-10T01:18:46.637Z,35.56
2023-05-10T01:21:24.611Z,35.55
2023-05-10T01:24:11.832Z,35.49
2023-05-10T01:26:58.992Z,35.53
2023-05-10T01:29:51.511Z,35.63
2023-05-10T01:32:32.498Z,35.66
2023-05-10T01:35:06.293Z,35.67
2023-05-10T01:37:43.202Z,35.87
2023-05-10T01:40:20.814Z,35.97
2023-05-10T01:42:53.581Z,35.83
2023-05-10T01:45:29.671Z,35.70
2023-05-10T01:48:06.551Z,35.81
2023-05-10T01:50:38.569Z,35.99
2023-05-10T01:53:11.790Z,35.76
2023-05-10T01:55:45.229Z,35.77
2023-05-10T01:58:18.264Z,35.78
2023-05-10T02:00:50.868Z,35.90
2023-05-10T02:03:24.478Z,36.03
2023-05-10T02:05:56.762Z,36.01
2023-05-10T02:08:28.490Z,36.20
2023-05-10T02:10:59.829Z,36.07
2023-05-10T02:13:33.823Z,35.98
2023-05-10T02:16:05.812Z,36.14
2023-05-10T02:18:38.161Z,36.19
2023-05-10T02:21:10.331Z,36.04
2023-05-10T02:23:42.768Z,36.16
2023-05-10T02:26:14.591Z,36.31
2023-05-10T02:28:46.894Z,36.16
2023-05-10T02:31:17.940Z,36.18
2023-05-10T02:33:49.722Z,36.30
2023-05-10T02:36:23.414Z,36.36
2023-05-10T02:38:54.892Z,36.34
2023-05-10T02:41:27.948Z,36.28
2023-05-10T02:44:01.890Z,36.40
2023-05-10T02:46:32.589Z,36.48
2023-05-10T02:49:03.830Z,36.48
2023-05-10T02:51:37.280Z,36.30
2023-05-10T02:54:11.749Z,36.47
2023-05-10T02:56:44.618Z,36.52
2023-05-10T02:59:15.267Z,36.42
2023-05-10T03:01:45.926Z,36.49
2023-05-10T03:04:17.228Z,36.55
2023-05-10T03:06:47.928Z,36.55
2023-05-10T03:09:18.684Z,36.67
2023-05-10T03:11:57.266Z,36.49
2023-05-10T03:14:36.364Z,36.60
2023-05-10T03:17:12.785Z,36.53
2023-05-10T03:19:46.143Z,36.63
2023-05-10T03:22:23.538Z,36.51
2023-05-10T03:24:56.003Z,36.65
2023-05-10T03:27:28.353Z,36.58
2023-05-10T03:30:00.077Z,36.76
2023-05-10T03:32:31.390Z,36.73
2023-05-10T03:35:03.399Z,36.73
2023-05-10T03:37:34.302Z,37.00
2023-05-10T03:40:05.234Z,36.97
2023-05-10T03:42:36.961Z,36.75
2023-05-10T03:45:08.738Z,36.95
2023-05-10T03:47:39.468Z,36.82
2023-05-10T03:50:12.040Z,36.91
2023-05-10T03:52:42.617Z,36.69
2023-05-10T03:55:13.272Z,36.71
2023-05-10T03:57:44.088Z,36.90
2023-05-10T04:00:15.712Z,37.03
2023-05-10T04:02:46.534Z,36.88
2023-05-10T04:05:22.161Z,37.09
2023-05-10T04:07:52.712Z,37.05
2023-05-10T04:10:23.324Z,36.99
2023-05-10T04:12:53.873Z,37.07
2023-05-10T04:15:24.658Z,37.17
2023-05-10T04:17:55.205Z,37.22
2023-05-10T04:20:25.713Z,37.20
2023-05-10T04:22:56.276Z,37.26
2023-05-10T04:25:26.818Z,37.21
2023-05-10T04:27:57.368Z,37.16
2023-05-10T04:30:29.598Z,37.28
2023-05-10T04:33:01.127Z,37.30
2023-05-10T04:35:31.783Z,37.35
2023-05-10T04:38:02.324Z,37.22
2023-05-10T04:40:32.874Z,37.37
2023-05-10T04:43:03.427Z,37.47
2023-05-10T04:45:33.938Z,37.53
2023-05-10T04:48:04.598Z,37.72
2023-05-10T04:50:35.234Z,37.61
2023-05-10T04:53:05.789Z,37.56
2023-05-10T04:55:36.298Z,37.60
2023-05-10T04:58:06.879Z,37.58
2023-05-10T05:00:37.385Z,37.95
2023-05-10T05:03:08.376Z,37.51
2023-05-10T05:05:39.013Z,37.66
2023-05-10T05:08:10.029Z,37.61
2023-05-10T05:10:40.608Z,37.70
2023-05-10T05:13:11.205Z,37.69
2023-05-10T05:15:41.712Z,37.74
2023-05-10T05:18:16.816Z,37.59
2023-05-10T05:20:49.097Z,37.77
2023-05-10T05:23:21.771Z,37.75
2023-05-10T05:25:53.263Z,37.71
2023-05-10T05:28:23.887Z,37.93
2023-05-10T05:30:54.392Z,37.66
2023-05-10T05:33:24.964Z,37.64
2023-05-10T05:35:55.614Z,37.88
2023-05-10T05:38:26.264Z,37.54
2023-05-10T05:40:56.983Z,37.77
2023-05-10T05:43:27.615Z,37.70
2023-05-10T05:45:59.172Z,37.72
2023-05-10T05:48:31.459Z,37.59
2023-05-10T05:51:02.065Z,37.61
2023-05-10T05:53:32.568Z,37.75
2023-05-10T05:56:03.089Z,37.57
2023-05-10T05:58:33.628Z,37.62
2023-05-10T06:01:04.423Z,37.54
2023-05-10T06:03:35.306Z,37.57
2023-05-10T06:06:06.273Z,37.44
2023-05-10T06:08:36.850Z,37.37
2023-05-10T06:11:07.441Z,37.27
2023-05-10T06:13:38.047Z,37.22
2023-05-10T06:16:10.358Z,37.23
2023-05-10T06:18:40.859Z,37.29
2023-05-10T06:21:11.527Z,37.28
2023-05-10T06:23:42.067Z,37.02
2023-05-10T06:26:12.686Z,37.13
2023-05-10T06:28:43.287Z,36.97
2023-05-10T06:31:13.902Z,37.06
2023-05-10T06:33:44.526Z,37.10
2023-05-10T06:36:15.585Z,37.10
2023-05-10T06:38:46.159Z,37.22
2023-05-10T06:41:16.813Z,36.72
2023-05-10T06:43:47.390Z,36.91
2023-05-10T06:46:17.886Z,37.17
2023-05-10T06:48:48.458Z,36.88
2023-05-10T06:51:19.050Z,36.99
2023-05-10T06:53:49.712Z,36.84
2023-05-10T06:56:22.583Z,36.81
2023-05-10T06:58:53.292Z,36.89
2023-05-10T07:01:23.961Z,36.58
2023-05-10T07:03:54.624Z,36.54
2023-05-10T07:06:33.062Z,36.54
2023-05-10T07:09:04.625Z,36.72
2023-05-10T07:11:35.142Z,36.55
2023-05-10T07:14:05.636Z,36.88
2023-05-10T07:16:36.161Z,36.87
2023-05-10T07:19:07.568Z,36.35
2023-05-10T07:21:38.571Z,35.32
2023-05-10T07:24:09.335Z,35.67
2023-05-10T07:26:39.954Z,36.28
2023-05-10T07:29:11.106Z,36.00
2023-05-10T07:31:42.995Z,36.11
2023-05-10T07:34:13.527Z,36.18
2023-05-10T07:36:44.074Z,35.91
2023-05-10T07:39:18.611Z,35.24
2023-05-10T07:41:51.869Z,35.17
2023-05-10T07:44:22.498Z,35.06
2023-05-10T07:46:53.185Z,33.84
2023-05-10T07:49:25.193Z,35.37
2023-05-10T07:51:55.697Z,35.28
2023-05-10T07:54:26.279Z,34.05
2023-05-10T07:56:56.840Z,34.96
2023-05-10T07:59:27.410Z,33.11
2023-05-10T08:01:58.364Z,33.24
2023-05-10T08:04:29.161Z,33.98
2023-05-10T08:06:59.689Z,33.63
2023-05-10T08:09:30.172Z,33.74
2023-05-10T08:12:01.066Z,32.66
2023-05-10T08:14:31.824Z,33.40
2023-05-10T08:17:02.363Z,33.63
2023-05-10T08:19:33.284Z,33.31
2023-05-10T08:22:03.877Z,33.45
2023-05-10T08:24:35.903Z,33.07
2023-05-10T08:27:06.678Z,33.35
2023-05-10T08:29:48.993Z,31.85
2023-05-10T08:32:20.810Z,32.76
2023-05-10T08:34:51.375Z,32.50
2023-05-10T08:37:21.949Z,32.20
2023-05-10T08:39:52.547Z,32.30
2023-05-10T08:42:24.902Z,33.02
2023-05-10T08:44:56.180Z,33.04
2023-05-10T08:47:27.508Z,31.63
2023-05-10T08:50:00.672Z,32.60
2023-05-10T08:52:32.247Z,33.07
2023-05-10T08:55:03.029Z,31.97
2023-05-10T08:57:33.477Z,31.37
2023-05-10T09:00:04.870Z,32.98
2023-05-10T09:02:35.839Z,32.50
2023-05-10T09:05:08.058Z,32.50
2023-05-10T09:07:38.754Z,32.05
2023-05-10T09:10:11.429Z,32.49
2023-05-10T09:12:41.989Z,31.33
2023-05-10T09:15:17.223Z,30.48
2023-05-10T09:17:48.482Z,29.16
2023-05-10T09:20:19.650Z,31.21
2023-05-10T09:22:50.771Z,30.88
2023-05-10T09:25:21.469Z,31.33
2023-05-10T09:27:52.312Z,30.38
2023-05-10T09:30:27.847Z,29.94
2023-05-10T09:32:59.263Z,29.87
2023-05-10T09:35:30.384Z,30.70
2023-05-10T09:38:01.783Z,30.39
2023-05-10T09:40:33.079Z,31.29
2023-05-10T09:43:04.681Z,31.37
2023-05-10T09:45:38.659Z,30.99
2023-05-10T09:48:10.349Z,30.86
2023-05-10T09:50:41.435Z,30.89
2023-05-10T09:53:16.872Z,31.15
2023-05-10T09:55:48.056Z,29.70
2023-05-10T09:58:18.593Z,30.30
2023-05-10T10:00:52.633Z,29.61
2023-05-10T10:03:23.763Z,30.47
2023-05-10T10:05:57.030Z,29.57
2023-05-10T10:08:29.079Z,30.72
2023-05-10T10:10:59.696Z,30.60
2023-05-10T10:13:30.765Z,31.25
2023-05-10T10:16:01.362Z,29.79
2023-05-10T10:18:32.862Z,29.51
2023-05-10T10:21:03.715Z,29.74
2023-05-10T10:23:34.269Z,30.24
2023-05-10T10:26:05.674Z,30.22
2023-05-10T10:28:41.883Z,30.98
2023-05-10T10:31:20.187Z,30.87
2023-05-10T10:34:03.049Z,30.82
2023-05-10T10:36:34.992Z,30.14
2023-05-10T10:39:10.701Z,29.98
2023-05-10T10:41:44.977Z,29.97
2023-05-10T10:44:34.854Z,28.91
2023-05-10T10:47:09.593Z,29.56
2023-05-10T10:49:46.493Z,29.80
2023-05-10T10:52:18.192Z,30.28
2023-05-10T10:54:53.470Z,30.31
2023-05-10T10:57:24.100Z,30.48
2023-05-10T11:00:14.590Z,30.00
2023-05-10T11:02:50.062Z,30.38
2023-05-10T11:05:35.309Z,30.28
2023-05-10T11:08:11.460Z,28.74
2023-05-10T11:10:42.799Z,29.69
2023-05-10T11:13:13.335Z,30.34
2023-05-10T11:15:51.829Z,29.69
2023-05-10T11:18:23.063Z,30.05
2023-05-10T11:20:54.194Z,29.31
2023-05-10T11:23:24.776Z,29.99
2023-05-10T11:25:56.200Z,30.29
2023-05-10T11:28:28.149Z,30.15
2023-05-10T11:30:59.189Z,30.40
2023-05-10T11:33:29.757Z,29.66
2023-05-10T11:36:00.489Z,30.28
2023-05-10T11:38:34.991Z,29.76
2023-05-10T11:41:05.554Z,30.31
2023-05-10T11:43:37.848Z,29.46
2023-05-10T11:46:08.844Z,28.93
2023-05-10T11:48:40.823Z,28.86
2023-05-10T11:51:11.917Z,28.97
2023-05-10T11:53:42.523Z,28.80
2023-05-10T11:56:13.646Z,29.58
2023-05-10T11:58:44.544Z,29.70
2023-05-10T12:01:15.217Z,29.94
2023-05-10T12:03:46.237Z,29.77
2023-05-10T12:06:17.556Z,28.50
2023-05-10T12:08:49.210Z,29.37
2023-05-10T12:11:20.426Z,29.51
2023-05-10T12:13:51.039Z,29.31
2023-05-10T12:16:22.337Z,28.93
2023-05-10T12:18:53.356Z,29.21
2023-05-10T12:21:24.197Z,29.36
2023-05-10T12:23:55.559Z,28.67
2023-05-10T12:26:27.534Z,29.47
2023-05-10T12:29:13.482Z,28.34
2023-05-10T12:31:54.576Z,27.65
2023-05-10T12:34:28.967Z,28.13
2023-05-10T12:36:59.593Z,28.95
2023-05-10T12:39:39.746Z,28.41
2023-05-10T12:42:10.369Z,28.99
2023-05-10T12:44:41.216Z,28.96
2023-05-10T12:47:11.849Z,28.85
2023-05-10T12:49:42.434Z,28.66
2023-05-10T12:52:12.970Z,28.71
2023-05-10T12:54:43.531Z,28.91
2023-05-10T12:57:14.973Z,29.18
2023-05-10T12:59:45.587Z,29.06
2023-05-10T13:02:16.452Z,29.23
2023-05-10T13:04:48.946Z,29.07
2023-05-10T13:07:21.519Z,28.29
2023-05-10T13:09:52.129Z,28.77
2023-05-10T13:12:22.900Z,28.64
2023-05-10T13:14:53.672Z,27.84
2023-05-10T13:17:24.591Z,28.05
2023-05-10T13:19:55.492Z,28.36
2023-05-10T13:22:39.328Z,28.44
2023-05-10T13:25:12.565Z,27.67
2023-05-10T13:27:43.191Z,28.23
2023-05-10T13:30:14.168Z,27.93
2023-05-10T13:32:45.045Z,28.23
2023-05-10T13:35:15.826Z,28.48
2023-05-10T13:37:46.523Z,28.32
2023-05-10T13:40:18.210Z,28.18
2023-05-10T13:42:49.061Z,28.27
2023-05-10T13:45:19.994Z,28.25
2023-05-10T13:47:50.854Z,28.35
2023-05-10T13:50:21.963Z,28.42
2023-05-10T13:52:52.653Z,28.50
2023-05-10T13:55:23.889Z,28.75
2023-05-10T13:57:55.159Z,28.76
2023-05-10T14:00:26.285Z,28.77
2023-05-10T14:02:57.677Z,28.61
2023-05-10T14:05:28.860Z,28.47
2023-05-10T14:07:59.866Z,27.86
2023-05-10T14:10:31.194Z,28.28
2023-05-10T14:13:02.340Z,28.48
2023-05-10T14:15:33.967Z,28.01
2023-05-10T14:18:04.836Z,27.96
2023-05-10T14:20:35.563Z,27.81
2023-05-10T14:23:06.299Z,27.71
2023-05-10T14:25:37.374Z,27.35
2023-05-10T14:28:08.158Z,28.38
2023-05-10T14:30:38.885Z,28.32
2023-05-10T14:33:10.027Z,28.09
2023-05-10T14:35:41.577Z,28.48
2023-05-10T14:38:13.633Z,28.53
2023-05-10T14:40:44.561Z,28.50
2023-05-10T14:43:15.855Z,28.12
2023-05-10T14:45:47.712Z,28.10
2023-05-10T14:48:18.640Z,27.95
2023-05-10T14:50:50.769Z,28.19
2023-05-10T14:53:21.747Z,27.56
2023-05-10T14:55:53.690Z,27.68
2023-05-10T14:58:26.156Z,27.92
2023-05-10T15:00:57.779Z,27.69
2023-05-10T15:03:29.148Z,28.35
2023-05-10T15:06:02.435Z,28.36
2023-05-10T15:08:32.983Z,28.33
2023-05-10T15:11:05.775Z,28.37
2023-05-10T15:13:36.788Z,28.14
2023-05-10T15:16:07.888Z,28.12
2023-05-10T15:18:38.828Z,28.08
2023-05-10T15:21:09.533Z,27.97
2023-05-10T15:23:40.182Z,28.13
2023-05-10T15:26:14.699Z,28.32
2023-05-10T15:28:45.481Z,28.23
2023-05-10T15:31:18.544Z,28.31
2023-05-10T15:33:49.133Z,28.10
2023-05-10T15:36:21.994Z,28.00
2023-05-10T15:38:52.750Z,28.15
2023-05-10T15:41:24.001Z,28.27
2023-05-10T15:43:55.998Z,28.03
2023-05-10T15:46:26.603Z,28.35
2023-05-10T15:48:57.376Z,28.45
2023-05-10T15:51:28.115Z,28.15
2023-05-10T15:54:07.218Z,28.49
2023-05-10T15:56:39.084Z,28.44
2023-05-10T15:59:12.491Z,28.51
2023-05-10T16:01:43.342Z,28.47
2023-05-10T16:04:16.478Z,28.54
2023-05-10T16:06:48.470Z,28.36
2023-05-10T16:09:19.192Z,28.31
2023-05-10T16:11:49.941Z,28.55
2023-05-10T16:14:22.426Z,28.56
2023-05-10T16:16:53.796Z,28.48
2023-05-10T16:19:24.847Z,28.61
2023-05-10T16:21:56.321Z,28.61
2023-05-10T16:24:27.188Z,28.61
2023-05-10T16:26:57.867Z,28.69
2023-05-10T16:29:29.856Z,28.85
2023-05-10T16:32:00.564Z,28.70
2023-05-10T16:34:31.152Z,28.75
2023-05-10T16:37:02.391Z,28.69
2023-05-10T16:39:33.502Z,28.70
2023-05-10T16:42:04.463Z,28.69
2023-05-10T16:44:36.152Z,28.78
2023-05-10T16:47:08.626Z,28.80
2023-05-10T16:49:40.251Z,28.82
2023-05-10T16:52:16.955Z,28.90
2023-05-10T16:54:47.842Z,28.98
2023-05-10T16:57:19.397Z,29.00
2023-05-10T16:59:50.270Z,29.02
2023-05-10T17:02:22.702Z,28.99
2023-05-10T17:04:56.428Z,29.09
2023-05-10T17:07:31.987Z,28.99
2023-05-10T17:10:02.704Z,29.10
2023-05-10T17:12:34.473Z,29.03
2023-05-10T17:15:06.710Z,29.14
2023-05-10T17:17:37.564Z,29.17
2023-05-10T17:20:11.791Z,29.19
2023-05-10T17:22:43.879Z,29.26
2023-05-10T17:25:21.875Z,29.31
2023-05-10T17:27:52.672Z,29.29
2023-05-10T17:30:26.561Z,29.37
2023-05-10T17:33:01.482Z,29.39
2023-05-10T17:35:36.636Z,29.51
2023-05-10T17:38:07.444Z,29.45
2023-05-10T17:40:41.331Z,29.51
2023-05-10T17:43:14.527Z,29.56
2023-05-10T17:45:52.430Z,29.62
2023-05-10T17:48:24.425Z,29.62
2023-05-10T17:50:55.226Z,29.62
2023-05-10T17:53:29.606Z,29.71
2023-05-10T17:56:02.202Z,29.76
2023-05-10T17:58:33.499Z,29.79
2023-05-10T18:01:04.572Z,29.90
2023-05-10T18:03:36.695Z,29.83
2023-05-10T18:06:08.525Z,29.90
2023-05-10T18:08:40.383Z,29.96
2023-05-10T18:11:11.261Z,29.93
2023-05-10T18:13:41.965Z,30.00
2023-05-10T18:16:13.957Z,30.21
2023-05-10T18:18:45.956Z,30.03
2023-05-10T18:21:16.888Z,30.15
2023-05-10T18:23:48.994Z,30.27
2023-05-10T18:26:20.041Z,30.20
2023-05-10T18:28:55.432Z,30.22
2023-05-10T18:31:28.929Z,30.24
2023-05-10T18:33:59.828Z,30.23
2023-05-10T18:36:31.759Z,30.31
2023-05-10T18:39:02.753Z,30.28
2023-05-10T18:41:37.749Z,30.32
2023-05-10T18:44:09.430Z,30.33
2023-05-10T18:46:40.273Z,30.27
2023-05-10T18:49:11.450Z,30.34
2023-05-10T18:51:42.672Z,30.41
2023-05-10T18:54:21.371Z,30.44
2023-05-10T18:56:52.605Z,30.45
2023-05-10T18:59:28.189Z,30.51
2023-05-10T19:01:59.281Z,30.56
2023-05-10T19:04:31.322Z,30.46
2023-05-10T19:07:03.301Z,30.60
2023-05-10T19:09:33.913Z,30.55
2023-05-10T19:12:05.717Z,30.63
2023-05-10T19:14:38.406Z,30.64
2023-05-10T19:17:09.191Z,30.81
2023-05-10T19:19:40.080Z,30.64
2023-05-10T19:22:10.943Z,30.68
2023-05-10T19:24:42.531Z,30.78
2023-05-10T19:27:15.970Z,30.67
2023-05-10T19:29:46.814Z,30.73
2023-05-10T19:32:27.494Z,30.73
2023-05-10T19:34:58.304Z,30.71
2023-05-10T19:37:28.818Z,30.79
2023-05-10T19:39:59.309Z,30.76
2023-05-10T19:42:29.933Z,30.82
2023-05-10T19:45:00.970Z,30.85
2023-05-10T19:47:31.816Z,30.79
2023-05-10T19:50:02.497Z,30.94
2023-05-10T19:52:33.302Z,30.99
2023-05-10T19:55:04.658Z,30.96
2023-05-10T19:57:35.206Z,31.01
2023-05-10T20:00:06.827Z,31.05
2023-05-10T20:02:41.773Z,31.05
2023-05-10T20:05:12.525Z,31.12
2023-05-10T20:07:43.093Z,31.11
2023-05-10T20:10:13.985Z,31.07
2023-05-10T20:12:49.757Z,31.12
2023-05-10T20:15:22.250Z,31.11
2023-05-10T20:17:53.290Z,31.23
2023-05-10T20:20:23.933Z,31.16
2023-05-10T20:22:54.610Z,31.13
2023-05-10T20:25:25.090Z,31.16
2023-05-10T20:27:55.609Z,31.25
2023-05-10T20:30:28.973Z,31.27
2023-05-10T20:32:59.472Z,31.35
2023-05-10T20:35:30.081Z,31.30
2023-05-10T20:38:02.174Z,31.25
2023-05-10T20:40:32.934Z,31.31
2023-05-10T20:43:03.596Z,31.33
2023-05-10T20:45:35.394Z,31.38
2023-05-10T20:48:07.853Z,31.31
2023-05-10T20:50:38.504Z,31.39
2023-05-10T20:53:08.997Z,31.45
2023-05-10T20:55:39.648Z,31.56
2023-05-10T20:58:10.145Z,31.50
2023-05-10T21:00:40.675Z,31.52
2023-05-10T21:03:11.277Z,31.57
2023-05-10T21:05:41.861Z,31.52
2023-05-10T21:08:12.442Z,31.48
2023-05-10T21:10:42.992Z,31.50
2023-05-10T21:13:13.454Z,31.54
2023-05-10T21:15:44.136Z,31.67
2023-05-10T21:18:14.636Z,31.65
2023-05-10T21:20:45.126Z,31.79
2023-05-10T21:23:15.595Z,31.81
2023-05-10T21:25:46.240Z,31.77
2023-05-10T21:28:16.716Z,31.55
2023-05-10T21:30:47.967Z,31.59
2023-05-10T21:33:18.468Z,31.77
2023-05-10T21:35:49.075Z,31.79
2023-05-10T21:38:19.639Z,31.76
2023-05-10T21:40:50.190Z,31.95
2023-05-10T21:43:20.773Z,31.90
2023-05-10T21:45:51.286Z,31.82
2023-05-10T21:48:21.926Z,31.93
2023-05-10T21:50:52.451Z,32.02
2023-05-10T21:53:23.369Z,32.01
2023-05-10T21:55:55.576Z,32.00
2023-05-10T21:58:26.161Z,32.09
2023-05-10T22:00:56.826Z,32.03
2023-05-10T22:03:27.484Z,32.08
2023-05-10T22:05:58.150Z,32.12
2023-05-10T22:08:28.950Z,32.22
2023-05-10T22:10:59.428Z,32.17
2023-05-10T22:13:29.912Z,32.22
2023-05-10T22:16:00.776Z,32.07
2023-05-10T22:18:31.353Z,32.10
2023-05-10T22:21:01.956Z,32.22
2023-05-10T22:23:32.537Z,32.23
2023-05-10T22:26:03.845Z,32.26
2023-05-10T22:28:34.342Z,32.25
2023-05-10T22:31:05.072Z,32.34
2023-05-10T22:33:35.557Z,32.37
2023-05-10T22:36:06.858Z,32.40
2023-05-10T22:38:37.639Z,32.43
2023-05-10T22:41:08.184Z,32.52
2023-05-10T22:43:38.707Z,32.50
2023-05-10T22:46:09.433Z,32.48
2023-05-10T22:48:40.072Z,32.38
2023-05-10T22:51:10.711Z,32.58
2023-05-10T22:53:41.253Z,32.48
2023-05-10T22:56:11.749Z,32.47
2023-05-10T22:58:42.317Z,32.55
2023-05-10T23:01:13.030Z,32.53
2023-05-10T23:03:43.730Z,32.56
2023-05-10T23:06:14.664Z,32.73
2023-05-10T23:08:45.654Z,32.63
2023-05-10T23:11:16.560Z,32.62
2023-05-10T23:13:47.389Z,32.59
2023-05-10T23:16:18.399Z,32.70
2023-05-10T23:18:49.262Z,32.60
2023-05-10T23:21:20.192Z,32.64
2023-05-10T23:23:51.005Z,32.68
2023-05-10T23:26:22.454Z,32.84
2023-05-10T23:28:53.269Z,32.95
2023-05-10T23:31:24.125Z,32.86
2023-05-10T23:33:55.163Z,32.72
2023-05-10T23:36:25.976Z,32.97
2023-05-10T23:38:56.693Z,32.90
2023-05-10T23:41:27.769Z,32.80
2023-05-10T23:43:58.617Z,32.96
2023-05-10T23:46:29.406Z,32.98
2023-05-10T23:49:00.206Z,32.94
2023-05-10T23:51:31.025Z,33.09
2023-05-10T23:54:02.215Z,32.85
2023-05-10T23:56:33.294Z,33.19
2023-05-10T23:59:06.068Z,33.11
